Airfield :
LOGIN :

Register | Disclaimer

   EN    FR    IT 

 










Legend :    VFR   Marginal VFR   IFR   Intensive IFR   Very Intensive IFR
Visi :
Ceiling :
>= 8 km
>= 3000ft
5 to 8 km
1000 to 3000 ft
1500m to 5 km
500 to 1000 ft
800 to 1500m
200 to 500 ft
< 800m
< 200 ft
Symbols :   Thunderstorms  Fog  Heavy snow  Heavy precipitations  Wind > 20 kt
SIGMETs :     Misc.  Thunderstorms  Icing  Turbulence  Mountain Waves  Volcanic Ashes







- Airport Elevation : -15 ft
- IATA code : RTM


EHRD - Rotterdam Zestienhoven

CURRENT METAR :
  • 160855Z AUTO 33004KT 310V010 9999 FEW030/// SCT038/// 03/01 Q1010 TEMPO 6000 SHRAGS SCT020CB

EXPIRED METARs :
  • 160825Z AUTO 33007KT 280V010 9999 FEW011 FEW015CB SCT024 BKN036 03/01 Q1010 TEMPO 6000 SHRAGS
  • 160755Z AUTO 22004KT 9999 FEW026/// SCT041/// BKN049/// 02/01 Q1009 TEMPO 6000 SHRAGS
  • 160725Z AUTO 35005KT 310V030 9999 FEW003 FEW015CB SCT027 03/01 Q1009 RERAUP TEMPO 6000 SHRAGS SCT020CB
  • 160655Z AUTO 32004KT 290V350 9999 NSC 02/01 Q1009 NOSIG
  • 160625Z AUTO 31005KT 280V030 9999 FEW042/// 03/01 Q1008 NOSIG

TAF TAF EHRD
Valid from the 16 at 06:00 until the 17 at 12:00 UTC


160501Z 1606/1712 30007KT 9999 SCT025
TEMPO 1606/1703 33012G22KT 6000 SHRAGS SCT020CB BKN030
PROB30
TEMPO 1703/1712 7000 -SHRA SCT020TCU
BECMG 1709/1712 23006KT
No reported NOTAMs for that airfield.



MET'MAP, your aeronautical weather chart ! - Copyright ORBIFLY December 2007 - Disclaimer

ORBIFLY MET'MAP TEAM :

Programming & Development : Alexandra Zaïnal
Concept & Development : Baudouin d'Aumeries
Co-Development & Prog : Marc-Olivier Méhu
Technical & hardware support : Manuel Goepfert

Contact : metmap@orbifly.com




SOURCES & CREDITS :

   NOAA